Time;durP1;ratioP1;P1;durP2;ratioP2;P2;SDS_P1;SDS_P2;PMS_P1;PMS_P2;Temp;Humidity;BMP_temperature;BMP_pressure;BME280_temperature;BME280_humidity;BME280_pressure;Samples;Min_cycle;Max_cycle;Signal;HPM_P1;HPM_P2
2023/08/12 00:00:56;;;;;;;;;;;13.10;99.90;;;;;;5105974;28;19908;-73
2023/08/12 00:03:23;;;;;;;;;;;13.30;99.90;;;;;;5113926;28;19914;-75
2023/08/12 00:05:49;;;;;;;;;;;13.40;99.90;;;;;;5114175;28;20296;-76
2023/08/12 00:08:16;;;;;;;;;;;13.40;99.90;;;;;;5114192;28;20459;-71
2023/08/12 00:10:43;;;;;;;;;;;13.60;99.90;;;;;;5103943;28;19958;-77
2023/08/12 00:13:10;;;;;;;;;;;13.70;99.90;;;;;;5093639;28;19927;-73
2023/08/12 00:15:36;;;;;;;;;;;13.80;99.90;;;;;;5093284;28;20427;-72
2023/08/12 00:18:06;;;;;;;;;;;13.80;99.90;;;;;;5093350;28;19953;-71
2023/08/12 00:20:32;;;;;;;;;;;13.90;99.90;;;;;;5104568;28;19940;-74
2023/08/12 00:22:59;;;;;;;;;;;14.10;99.90;;;;;;5112907;28;19955;-77
2023/08/12 00:25:26;;;;;;;;;;;14.10;99.90;;;;;;5112750;28;19916;-71
2023/08/12 00:27:53;;;;;;;;;;;14.20;99.80;;;;;;5112618;28;19934;-73
2023/08/12 00:30:19;;;;;;;;;;;14.20;99.70;;;;;;5103520;28;19912;-73
2023/08/12 00:32:46;;;;;;;;;;;14.40;99.00;;;;;;5106625;28;20339;-70
2023/08/12 00:35:13;;;;;;;;;;;14.50;98.70;;;;;;5110726;28;19907;-70
2023/08/12 00:37:39;;;;;;;;;;;14.60;98.70;;;;;;5110992;28;20569;-70
2023/08/12 00:40:07;;;;;;;;;;;14.70;98.60;;;;;;5111134;28;19916;-72
2023/08/12 00:42:34;;;;;;;;;;;14.80;98.00;;;;;;5107203;28;19912;-75
2023/08/12 00:45:00;;;;;;;;;;;14.90;97.90;;;;;;5110200;28;20015;-73
2023/08/12 00:47:31;;;;;;;;;;;14.90;97.50;;;;;;5104009;28;20304;-73
2023/08/12 00:49:58;;;;;;;;;;;15.10;97.50;;;;;;5103921;28;19991;-72
2023/08/12 00:52:25;;;;;;;;;;;15.20;97.30;;;;;;5104410;28;19964;-73
2023/08/12 00:54:51;;;;;;;;;;;15.40;97.40;;;;;;5111861;28;19912;-72
2023/08/12 00:57:18;;;;;;;;;;;15.50;96.40;;;;;;5112559;28;19951;-70
2023/08/12 00:59:45;;;;;;;;;;;15.60;96.10;;;;;;5102896;28;19966;-69
2023/08/12 01:02:12;;;;;;;;;;;15.80;95.50;;;;;;5083494;28;20287;-70
2023/08/12 01:04:40;;;;;;;;;;;15.80;94.50;;;;;;5112181;28;19917;-71
2023/08/12 01:07:06;;;;;;;;;;;15.90;94.70;;;;;;5112322;28;20279;-73
2023/08/12 01:09:33;;;;;;;;;;;16.00;94.80;;;;;;5109918;28;19915;-68
2023/08/12 01:12:03;;;;;;;;;;;16.10;94.60;;;;;;5111711;28;19918;-71
2023/08/12 01:14:29;;;;;;;;;;;16.30;94.50;;;;;;5112658;28;20003;-72
2023/08/12 01:17:03;;;;;;;;;;;16.40;94.10;;;;;;5112388;28;20341;-72
2023/08/12 01:19:33;;;;;;;;;;;16.50;93.80;;;;;;5105416;28;19958;-67
2023/08/12 01:22:01;;;;;;;;;;;16.70;94.50;;;;;;5099560;28;20006;-69
2023/08/12 01:24:35;;;;;;;;;;;16.70;92.80;;;;;;5112222;28;19915;-71
2023/08/12 01:27:02;;;;;;;;;;;16.90;93.20;;;;;;5112286;28;19923;-71
2023/08/12 01:29:29;;;;;;;;;;;17.20;93.80;;;;;;5112111;28;20268;-71
2023/08/12 01:32:24;;;;;;;;;;;17.30;92.90;;;;;;5109557;28;19998;-71
2023/08/12 01:34:56;;;;;;;;;;;17.40;92.80;;;;;;5022129;28;20052;-69
2023/08/12 01:37:24;;;;;;;;;;;17.60;91.40;;;;;;5111870;28;19951;-70
2023/08/12 01:39:53;;;;;;;;;;;17.70;91.10;;;;;;5116258;28;19994;-72
2023/08/12 01:42:19;;;;;;;;;;;17.80;91.20;;;;;;5107013;28;20326;-69
2023/08/12 01:44:47;;;;;;;;;;;17.90;91.50;;;;;;5098411;28;19928;-70
2023/08/12 01:47:13;;;;;;;;;;;18.10;90.80;;;;;;5115595;27;19957;-71
2023/08/12 01:49:40;;;;;;;;;;;18.30;90.80;;;;;;5097932;28;19908;-72
2023/08/12 01:52:07;;;;;;;;;;;18.60;89.60;;;;;;5115863;28;20015;-73
2023/08/12 01:54:34;;;;;;;;;;;18.90;89.50;;;;;;5115258;28;19911;-71
2023/08/12 01:57:02;;;;;;;;;;;19.00;85.40;;;;;;5115723;27;19934;-70
2023/08/12 01:59:28;;;;;;;;;;;19.10;86.60;;;;;;5113888;28;20006;-67
2023/08/12 02:01:55;;;;;;;;;;;19.20;82.80;;;;;;5115697;28;20081;-73
2023/08/12 02:04:22;;;;;;;;;;;19.40;82.40;;;;;;5106928;28;20010;-69
2023/08/12 02:06:49;;;;;;;;;;;19.40;82.60;;;;;;5098470;27;19935;-72
2023/08/12 02:09:16;;;;;;;;;;;19.60;82.70;;;;;;5098647;28;19912;-73
2023/08/12 02:11:42;;;;;;;;;;;19.80;82.50;;;;;;5097301;27;19908;-71
2023/08/12 02:14:09;;;;;;;;;;;20.00;82.40;;;;;;5114998;28;19915;-76
2023/08/12 02:16:36;;;;;;;;;;;20.00;82.30;;;;;;5115940;27;19915;-77
2023/08/12 02:19:02;;;;;;;;;;;20.20;81.70;;;;;;5115352;28;20352;-73
2023/08/12 02:21:29;;;;;;;;;;;20.30;80.30;;;;;;5115446;28;20037;-75
2023/08/12 02:23:55;;;;;;;;;;;20.40;79.70;;;;;;5114850;28;19992;-74
2023/08/12 02:26:22;;;;;;;;;;;20.60;78.40;;;;;;5114902;28;19920;-74
2023/08/12 02:28:49;;;;;;;;;;;20.70;78.90;;;;;;5115287;28;19994;-72
2023/08/12 02:31:16;;;;;;;;;;;20.90;78.10;;;;;;5115237;28;19939;-76
2023/08/12 02:33:43;;;;;;;;;;;21.00;77.70;;;;;;5096696;28;19912;-75
2023/08/12 02:36:10;;;;;;;;;;;21.20;77.10;;;;;;5115214;28;19961;-73
2023/08/12 02:38:36;;;;;;;;;;;21.50;75.80;;;;;;5115073;28;19911;-74
2023/08/12 02:41:03;;;;;;;;;;;21.90;76.10;;;;;;5103363;28;19974;-72
2023/08/12 02:43:30;;;;;;;;;;;22.20;74.60;;;;;;5109460;28;20383;-72
2023/08/12 02:45:56;;;;;;;;;;;22.40;71.70;;;;;;5116149;28;19916;-71
2023/08/12 02:48:23;;;;;;;;;;;22.80;70.60;;;;;;5115530;28;20362;-77
2023/08/12 02:50:50;;;;;;;;;;;22.70;69.00;;;;;;5095262;28;19919;-73
2023/08/12 02:53:16;;;;;;;;;;;22.50;68.20;;;;;;5107413;28;19919;-72
2023/08/12 02:55:45;;;;;;;;;;;22.20;69.10;;;;;;5115331;28;19950;-74
2023/08/12 02:58:11;;;;;;;;;;;22.30;69.20;;;;;;5115157;28;19999;-75
2023/08/12 03:00:43;;;;;;;;;;;22.40;68.30;;;;;;5115130;28;20314;-75
2023/08/12 03:03:10;;;;;;;;;;;22.50;68.20;;;;;;5113976;28;19923;-73
2023/08/12 03:05:37;;;;;;;;;;;22.90;67.60;;;;;;5114775;28;20018;-74
2023/08/12 03:08:03;;;;;;;;;;;24.00;66.30;;;;;;5108233;28;19916;-75
2023/08/12 03:10:31;;;;;;;;;;;25.10;63.40;;;;;;5114788;28;19952;-73
2023/08/12 03:12:57;;;;;;;;;;;25.30;62.50;;;;;;5114800;28;19933;-74
2023/08/12 03:15:24;;;;;;;;;;;25.90;62.30;;;;;;5114719;28;19911;-73
2023/08/12 03:17:50;;;;;;;;;;;26.70;60.20;;;;;;5114496;27;19912;-71
2023/08/12 03:20:17;;;;;;;;;;;27.10;58.80;;;;;;5114471;28;19915;-73
2023/08/12 03:22:44;;;;;;;;;;;26.50;58.30;;;;;;5111780;28;19912;-70
2023/08/12 03:25:10;;;;;;;;;;;25.50;59.60;;;;;;5112229;28;19916;-75
2023/08/12 03:27:37;;;;;;;;;;;24.50;61.00;;;;;;5099278;27;19918;-71
2023/08/12 03:30:04;;;;;;;;;;;24.30;62.10;;;;;;5114478;28;19947;-68
2023/08/12 03:32:30;;;;;;;;;;;24.10;62.70;;;;;;5114190;27;19919;-68
2023/08/12 03:34:57;;;;;;;;;;;23.80;63.30;;;;;;5113359;28;19912;-71
2023/08/12 03:37:24;;;;;;;;;;;23.30;63.10;;;;;;5114013;28;20364;-76
2023/08/12 03:39:50;;;;;;;;;;;22.80;63.90;;;;;;5102716;28;19912;-70
2023/08/12 03:42:17;;;;;;;;;;;22.50;64.00;;;;;;5099771;28;19930;-69
2023/08/12 03:44:46;;;;;;;;;;;22.20;64.80;;;;;;5113544;28;19941;-72
2023/08/12 03:47:13;;;;;;;;;;;21.90;65.00;;;;;;5113559;28;20003;-69
2023/08/12 03:49:39;;;;;;;;;;;21.70;65.50;;;;;;5113815;28;19998;-74
2023/08/12 03:52:07;;;;;;;;;;;21.70;66.70;;;;;;5113591;28;19915;-69
2023/08/12 03:54:34;;;;;;;;;;;22.20;67.60;;;;;;5112611;28;19912;-76
2023/08/12 03:57:01;;;;;;;;;;;22.90;66.80;;;;;;5113822;28;19943;-73
2023/08/12 03:59:27;;;;;;;;;;;23.40;65.80;;;;;;5110906;27;19908;-74
2023/08/12 04:01:54;;;;;;;;;;;23.70;65.20;;;;;;5093536;28;19912;-74
2023/08/12 04:04:21;;;;;;;;;;;24.50;64.30;;;;;;5110782;28;19914;-75
2023/08/12 04:06:51;;;;;;;;;;;26.20;61.50;;;;;;5094544;28;20284;-71
2023/08/12 04:09:18;;;;;;;;;;;28.00;59.30;;;;;;5113100;28;20344;-75
2023/08/12 04:11:45;;;;;;;;;;;29.70;57.30;;;;;;5113237;28;19912;-73
2023/08/12 04:14:12;;;;;;;;;;;30.60;56.00;;;;;;5112746;28;20287;-73
2023/08/12 04:16:39;;;;;;;;;;;31.60;53.90;;;;;;5113169;28;19919;-75
2023/08/12 04:19:05;;;;;;;;;;;32.20;53.70;;;;;;5113365;28;19908;-74
2023/08/12 04:21:32;;;;;;;;;;;32.80;52.10;;;;;;5112429;28;19919;-73
2023/08/12 04:23:58;;;;;;;;;;;32.90;51.10;;;;;;5112917;28;19912;-74
2023/08/12 04:26:25;;;;;;;;;;;32.40;50.60;;;;;;5112696;28;19915;-72
2023/08/12 04:28:52;;;;;;;;;;;31.20;51.40;;;;;;5111660;28;19912;-71
2023/08/12 04:31:18;;;;;;;;;;;29.60;52.00;;;;;;5113410;28;20314;-73
2023/08/12 04:33:45;;;;;;;;;;;28.10;53.30;;;;;;5112919;28;19908;-76
2023/08/12 04:36:11;;;;;;;;;;;26.80;54.70;;;;;;5112337;28;20322;-69
2023/08/12 04:38:39;;;;;;;;;;;25.50;55.70;;;;;;5112653;28;19912;-70
2023/08/12 04:41:05;;;;;;;;;;;24.60;56.00;;;;;;5108339;28;20356;-70
2023/08/12 04:43:32;;;;;;;;;;;24.00;57.70;;;;;;5110406;27;19945;-69
2023/08/12 04:45:59;;;;;;;;;;;24.60;58.10;;;;;;5111571;28;19920;-70
2023/08/12 04:48:25;;;;;;;;;;;25.10;56.80;;;;;;5118259;27;19912;-71
2023/08/12 04:50:52;;;;;;;;;;;25.30;56.40;;;;;;5116502;27;19915;-72
2023/08/12 04:53:19;;;;;;;;;;;24.90;56.70;;;;;;5098236;28;19911;-70
2023/08/12 04:55:45;;;;;;;;;;;24.50;57.40;;;;;;5112223;28;19907;-73
2023/08/12 04:58:12;;;;;;;;;;;24.40;57.20;;;;;;5107948;28;20001;-70
2023/08/12 05:00:39;;;;;;;;;;;24.80;56.70;;;;;;5105263;28;19958;-73
2023/08/12 05:03:05;;;;;;;;;;;25.30;56.80;;;;;;5096174;28;20335;-70
2023/08/12 05:05:32;;;;;;;;;;;25.50;55.60;;;;;;5111510;28;19927;-70
2023/08/12 05:07:59;;;;;;;;;;;25.30;56.30;;;;;;5107556;28;19908;-69
2023/08/12 05:10:25;;;;;;;;;;;25.30;55.90;;;;;;5108231;28;19915;-70
2023/08/12 05:12:54;;;;;;;;;;;25.70;56.40;;;;;;5094201;28;19908;-71
2023/08/12 05:15:20;;;;;;;;;;;25.80;55.60;;;;;;5116257;28;19998;-71
2023/08/12 05:17:47;;;;;;;;;;;25.60;55.60;;;;;;5109767;27;19982;-72
2023/08/12 05:20:14;;;;;;;;;;;25.40;56.40;;;;;;5112664;28;19920;-72
2023/08/12 05:22:40;;;;;;;;;;;25.70;56.50;;;;;;5104454;28;20365;-69
2023/08/12 05:25:07;;;;;;;;;;;26.30;56.90;;;;;;5114729;28;20026;-75
2023/08/12 05:27:34;;;;;;;;;;;26.70;59.20;;;;;;5112259;28;19973;-70
2023/08/12 05:30:00;;;;;;;;;;;26.70;60.80;;;;;;5094837;28;20249;-70
2023/08/12 05:32:27;;;;;;;;;;;26.70;61.20;;;;;;5106390;28;19919;-75
2023/08/12 05:34:55;;;;;;;;;;;26.40;62.10;;;;;;5096023;28;19957;-72
2023/08/12 05:37:22;;;;;;;;;;;26.30;62.80;;;;;;5107054;28;20417;-74
2023/08/12 05:39:48;;;;;;;;;;;25.80;62.90;;;;;;5108059;28;19919;-76
2023/08/12 05:42:15;;;;;;;;;;;25.20;64.70;;;;;;5100407;28;19916;-75
2023/08/12 05:44:42;;;;;;;;;;;24.30;66.00;;;;;;5099513;28;19923;-77
2023/08/12 05:47:09;;;;;;;;;;;23.60;68.00;;;;;;5117075;28;19965;-78
2023/08/12 05:49:35;;;;;;;;;;;23.10;69.80;;;;;;5115952;28;19908;-78
2023/08/12 05:52:02;;;;;;;;;;;22.80;71.50;;;;;;5095778;28;20360;-76
2023/08/12 05:54:28;;;;;;;;;;;22.80;71.30;;;;;;5095737;28;19909;-77
2023/08/12 05:56:55;;;;;;;;;;;22.50;71.40;;;;;;5096050;28;20396;-74
2023/08/12 05:59:22;;;;;;;;;;;22.10;71.90;;;;;;5101690;28;19955;-74
2023/08/12 06:01:48;;;;;;;;;;;21.80;72.80;;;;;;5116079;28;20004;-72
2023/08/12 06:04:15;;;;;;;;;;;21.80;73.00;;;;;;5116131;28;19969;-77
2023/08/12 06:06:42;;;;;;;;;;;21.90;73.80;;;;;;5114444;28;19927;-73
2023/08/12 06:09:08;;;;;;;;;;;22.40;72.60;;;;;;5115817;28;19912;-74
2023/08/12 06:11:35;;;;;;;;;;;22.80;72.20;;;;;;5115931;28;20366;-75
2023/08/12 06:14:02;;;;;;;;;;;23.10;71.70;;;;;;5115781;28;19912;-73
2023/08/12 06:16:28;;;;;;;;;;;22.90;72.40;;;;;;5109262;28;19999;-77
2023/08/12 06:18:55;;;;;;;;;;;22.50;73.70;;;;;;5095535;28;20412;-78
2023/08/12 06:21:22;;;;;;;;;;;21.90;74.70;;;;;;5110385;28;19933;-73
2023/08/12 06:23:48;;;;;;;;;;;21.50;75.70;;;;;;5102429;28;19950;-74
2023/08/12 06:26:15;;;;;;;;;;;20.90;76.50;;;;;;5096042;28;20395;-76
2023/08/12 06:28:42;;;;;;;;;;;20.40;78.40;;;;;;5115486;28;19908;-75
2023/08/12 06:31:08;;;;;;;;;;;20.00;80.10;;;;;;5115192;28;19908;-77
2023/08/12 06:33:35;;;;;;;;;;;19.80;81.30;;;;;;5085097;28;20360;-77
2023/08/12 06:36:01;;;;;;;;;;;19.40;82.60;;;;;;5095294;28;19954;-77
2023/08/12 06:38:28;;;;;;;;;;;19.10;83.50;;;;;;5094903;28;19908;-74
2023/08/12 06:40:55;;;;;;;;;;;18.90;84.60;;;;;;5094862;28;19991;-75
2023/08/12 06:43:21;;;;;;;;;;;18.80;85.90;;;;;;5101447;28;19958;-74
2023/08/12 06:45:48;;;;;;;;;;;18.60;87.20;;;;;;5115073;28;19916;-75
2023/08/12 06:48:15;;;;;;;;;;;18.50;87.70;;;;;;5099793;28;19912;-75
2023/08/12 06:50:42;;;;;;;;;;;18.40;88.20;;;;;;5100535;28;19908;-76
2023/08/12 06:53:09;;;;;;;;;;;18.20;86.90;;;;;;5100160;28;19915;-76
2023/08/12 06:55:35;;;;;;;;;;;18.10;86.90;;;;;;5112954;28;20004;-77
2023/08/12 06:58:02;;;;;;;;;;;18.00;85.80;;;;;;5114918;28;19915;-77
2023/08/12 07:00:29;;;;;;;;;;;17.90;86.00;;;;;;5115643;28;19908;-75
2023/08/12 07:02:55;;;;;;;;;;;17.80;86.70;;;;;;5115379;28;19908;-74
2023/08/12 07:05:22;;;;;;;;;;;17.70;87.30;;;;;;5114543;28;19920;-69
2023/08/12 07:07:48;;;;;;;;;;;17.70;87.30;;;;;;5104887;28;19919;-69
2023/08/12 07:10:16;;;;;;;;;;;17.60;88.10;;;;;;5094031;28;19984;-69
2023/08/12 07:12:42;;;;;;;;;;;17.50;88.80;;;;;;5095413;28;19912;-74
2023/08/12 07:15:10;;;;;;;;;;;17.50;89.50;;;;;;5105762;28;19911;-76
2023/08/12 07:17:37;;;;;;;;;;;17.50;90.10;;;;;;5110756;28;19919;-74
2023/08/12 07:20:04;;;;;;;;;;;17.40;90.10;;;;;;5109574;28;19912;-74
2023/08/12 07:22:31;;;;;;;;;;;17.30;90.20;;;;;;5112252;28;19926;-74
2023/08/12 07:24:59;;;;;;;;;;;17.20;90.50;;;;;;5094583;28;20017;-75
2023/08/12 07:27:27;;;;;;;;;;;17.20;90.70;;;;;;5113141;28;20001;-75
2023/08/12 07:29:53;;;;;;;;;;;17.20;91.00;;;;;;5113012;28;20356;-68
2023/08/12 07:32:21;;;;;;;;;;;17.10;91.10;;;;;;5113497;28;19908;-74
2023/08/12 07:34:48;;;;;;;;;;;17.10;91.30;;;;;;5113882;28;19907;-77
2023/08/12 07:37:14;;;;;;;;;;;17.00;91.50;;;;;;5112729;28;19919;-81
2023/08/12 07:39:41;;;;;;;;;;;17.00;91.70;;;;;;5113047;28;19911;-69
2023/08/12 07:42:07;;;;;;;;;;;17.00;91.90;;;;;;5110068;28;19911;-67
2023/08/12 07:44:34;;;;;;;;;;;17.00;92.20;;;;;;5111569;28;19931;-69
2023/08/12 07:47:01;;;;;;;;;;;16.90;92.20;;;;;;5090236;28;19919;-76
2023/08/12 07:49:27;;;;;;;;;;;16.90;92.30;;;;;;5112089;28;19930;-70
2023/08/12 07:51:54;;;;;;;;;;;16.90;92.50;;;;;;5112041;27;19912;-72
2023/08/12 07:54:21;;;;;;;;;;;16.90;92.60;;;;;;5110837;28;19912;-73
2023/08/12 07:56:47;;;;;;;;;;;16.80;92.70;;;;;;5111881;28;19918;-77
2023/08/12 07:59:14;;;;;;;;;;;16.70;92.90;;;;;;5113228;28;19957;-74
2023/08/12 08:01:41;;;;;;;;;;;16.70;93.20;;;;;;5112766;27;20006;-74
2023/08/12 08:04:07;;;;;;;;;;;16.70;93.40;;;;;;5111615;28;19916;-70
2023/08/12 08:06:34;;;;;;;;;;;16.60;93.60;;;;;;5111575;28;20359;-72
2023/08/12 08:09:03;;;;;;;;;;;16.60;94.20;;;;;;5112697;28;19943;-72
2023/08/12 08:11:30;;;;;;;;;;;16.60;94.10;;;;;;5107819;28;19943;-71
2023/08/12 08:13:58;;;;;;;;;;;16.60;94.40;;;;;;5112205;28;19946;-75
2023/08/12 08:16:25;;;;;;;;;;;16.50;94.60;;;;;;5112753;27;19912;-81
2023/08/12 08:18:51;;;;;;;;;;;16.50;94.80;;;;;;5112832;28;19911;-72
2023/08/12 08:21:18;;;;;;;;;;;16.50;95.00;;;;;;5112854;28;20326;-75
2023/08/12 08:23:46;;;;;;;;;;;16.60;95.20;;;;;;5106917;28;19911;-73
2023/08/12 08:26:15;;;;;;;;;;;16.50;95.40;;;;;;5109254;28;19926;-73
2023/08/12 08:28:42;;;;;;;;;;;16.50;95.50;;;;;;5112160;28;19947;-75
2023/08/12 08:31:09;;;;;;;;;;;16.50;95.60;;;;;;5112438;28;20420;-75
2023/08/12 08:33:36;;;;;;;;;;;16.50;95.80;;;;;;5100649;27;20364;-75
2023/08/12 08:36:02;;;;;;;;;;;16.50;95.90;;;;;;5091947;28;19912;-68
2023/08/12 08:38:29;;;;;;;;;;;16.50;96.00;;;;;;5110686;28;19972;-69
2023/08/12 08:40:58;;;;;;;;;;;16.50;96.30;;;;;;5099513;28;19912;-68
2023/08/12 08:43:27;;;;;;;;;;;16.50;96.40;;;;;;5098421;27;20335;-71
2023/08/12 08:45:55;;;;;;;;;;;16.50;96.60;;;;;;5095796;28;20026;-71
2023/08/12 08:48:21;;;;;;;;;;;16.50;96.80;;;;;;5108583;27;19915;-68
2023/08/12 08:50:48;;;;;;;;;;;16.40;97.00;;;;;;5104316;28;19908;-72
2023/08/12 08:53:16;;;;;;;;;;;16.40;97.40;;;;;;5105574;28;20280;-75
2023/08/12 08:55:43;;;;;;;;;;;16.30;97.60;;;;;;5100283;28;20344;-70
2023/08/12 08:58:10;;;;;;;;;;;16.30;97.70;;;;;;5103618;27;19957;-71
2023/08/12 09:00:38;;;;;;;;;;;16.20;97.90;;;;;;5092938;28;20324;-71
2023/08/12 09:03:05;;;;;;;;;;;16.20;98.10;;;;;;5093801;28;19912;-72
2023/08/12 09:05:32;;;;;;;;;;;16.20;98.20;;;;;;5091811;28;19963;-71
2023/08/12 09:08:00;;;;;;;;;;;16.10;98.50;;;;;;5108156;28;20375;-70
2023/08/12 09:10:27;;;;;;;;;;;16.20;98.80;;;;;;5110170;28;19994;-69
2023/08/12 09:12:56;;;;;;;;;;;16.20;99.00;;;;;;5101837;28;19912;-71
2023/08/12 09:15:23;;;;;;;;;;;16.20;99.10;;;;;;5098964;28;19911;-69
2023/08/12 09:17:50;;;;;;;;;;;16.10;99.40;;;;;;5106285;28;19915;-68
2023/08/12 09:20:17;;;;;;;;;;;16.10;99.50;;;;;;5102519;28;19912;-73
2023/08/12 09:22:44;;;;;;;;;;;16.10;99.60;;;;;;5092132;28;19912;-72
2023/08/12 09:25:10;;;;;;;;;;;16.00;99.90;;;;;;5102302;28;19927;-69
2023/08/12 09:27:40;;;;;;;;;;;16.00;99.90;;;;;;5105316;28;19915;-71
2023/08/12 09:30:08;;;;;;;;;;;16.00;99.90;;;;;;5111342;28;19911;-71
2023/08/12 09:32:35;;;;;;;;;;;15.90;99.90;;;;;;5104380;28;19958;-69
2023/08/12 09:35:05;;;;;;;;;;;15.90;99.90;;;;;;5104517;28;19916;-71
2023/08/12 09:37:32;;;;;;;;;;;15.90;99.90;;;;;;5105318;28;19918;-68
2023/08/12 09:39:59;;;;;;;;;;;15.90;99.90;;;;;;5110880;28;19912;-68
2023/08/12 09:42:26;;;;;;;;;;;15.90;99.90;;;;;;5096513;28;20014;-69
2023/08/12 09:44:52;;;;;;;;;;;15.80;99.90;;;;;;5105099;28;19920;-72
2023/08/12 09:47:19;;;;;;;;;;;15.80;99.90;;;;;;5101310;28;19924;-70
2023/08/12 09:49:46;;;;;;;;;;;15.70;99.90;;;;;;5109398;28;19964;-69
2023/08/12 09:52:13;;;;;;;;;;;15.70;99.90;;;;;;5094492;28;19940;-71
2023/08/12 09:54:39;;;;;;;;;;;15.60;99.90;;;;;;5108874;28;19934;-74
2023/08/12 09:57:11;;;;;;;;;;;15.60;99.90;;;;;;5103554;28;20014;-77
2023/08/12 09:59:38;;;;;;;;;;;15.50;99.90;;;;;;5113536;28;20425;-79
2023/08/12 10:02:07;;;;;;;;;;;15.50;99.90;;;;;;5104272;27;19912;-73
2023/08/12 10:04:38;;;;;;;;;;;15.50;99.90;;;;;;5103730;28;19941;-72
2023/08/12 10:07:05;;;;;;;;;;;15.40;99.90;;;;;;5101902;28;19964;-70
2023/08/12 10:09:33;;;;;;;;;;;15.40;99.90;;;;;;5114610;28;20361;-77
2023/08/12 10:12:00;;;;;;;;;;;15.30;99.90;;;;;;5105993;28;19912;-72
2023/08/12 10:14:26;;;;;;;;;;;15.20;99.90;;;;;;5115235;28;20403;-70
2023/08/12 10:16:53;;;;;;;;;;;15.20;99.90;;;;;;5104809;28;20329;-71
2023/08/12 10:19:21;;;;;;;;;;;15.20;99.90;;;;;;5094097;28;20428;-71
2023/08/12 10:21:48;;;;;;;;;;;15.20;99.90;;;;;;5094735;28;19995;-67
2023/08/12 10:24:16;;;;;;;;;;;15.10;99.90;;;;;;5114238;28;19969;-70
2023/08/12 10:26:43;;;;;;;;;;;15.10;99.90;;;;;;5114588;28;19968;-72
2023/08/12 10:29:11;;;;;;;;;;;15.00;99.90;;;;;;5115633;28;20288;-71
2023/08/12 10:31:39;;;;;;;;;;;14.90;99.90;;;;;;5115488;28;19908;-69
2023/08/12 10:34:06;;;;;;;;;;;14.90;99.90;;;;;;5113670;28;19912;-72
2023/08/12 10:36:34;;;;;;;;;;;14.90;99.90;;;;;;5115048;28;19908;-75
2023/08/12 10:39:00;;;;;;;;;;;14.90;99.90;;;;;;5095152;28;19908;-70
2023/08/12 10:41:27;;;;;;;;;;;14.80;99.90;;;;;;5113792;28;19995;-69
2023/08/12 10:44:04;;;;;;;;;;;14.80;99.90;;;;;;5097458;28;19920;-71
2023/08/12 10:46:37;;;;;;;;;;;14.70;99.90;;;;;;5092318;28;20400;-71
2023/08/12 10:49:05;;;;;;;;;;;14.70;99.90;;;;;;5093210;28;20463;-71
2023/08/12 10:51:44;;;;;;;;;;;14.70;99.90;;;;;;5105655;28;19912;-73
2023/08/12 10:54:30;;;;;;;;;;;14.60;99.90;;;;;;5116813;28;20392;-72
2023/08/12 10:57:05;;;;;;;;;;;14.50;99.90;;;;;;5101351;28;19912;-72
2023/08/12 10:59:50;;;;;;;;;;;14.50;99.90;;;;;;5077241;28;19951;-73
2023/08/12 11:02:26;;;;;;;;;;;14.40;99.90;;;;;;5094869;28;19912;-70
2023/08/12 11:04:56;;;;;;;;;;;14.40;99.90;;;;;;5094604;28;19908;-68
2023/08/12 11:07:33;;;;;;;;;;;14.30;99.90;;;;;;5094741;28;20270;-69
2023/08/12 11:10:04;;;;;;;;;;;14.30;99.90;;;;;;5094722;28;19942;-75
2023/08/12 11:12:33;;;;;;;;;;;14.20;99.90;;;;;;5108760;28;19912;-68
2023/08/12 11:15:04;;;;;;;;;;;14.10;99.90;;;;;;5114803;28;19918;-71
2023/08/12 11:17:32;;;;;;;;;;;14.00;99.90;;;;;;5096577;28;19907;-74
2023/08/12 11:20:00;;;;;;;;;;;14.00;99.90;;;;;;5114957;28;19912;-74
2023/08/12 11:22:26;;;;;;;;;;;14.00;99.90;;;;;;5114957;28;19958;-75
2023/08/12 11:24:54;;;;;;;;;;;14.00;99.90;;;;;;5114818;28;20281;-74
2023/08/12 11:27:20;;;;;;;;;;;14.00;99.90;;;;;;5111164;28;20371;-75
2023/08/12 11:29:47;;;;;;;;;;;14.00;99.90;;;;;;5075997;28;20429;-73
2023/08/12 11:32:13;;;;;;;;;;;14.00;99.90;;;;;;5076386;28;19997;-73
2023/08/12 11:34:43;;;;;;;;;;;14.00;99.90;;;;;;5094070;28;19908;-70
2023/08/12 11:37:10;;;;;;;;;;;13.90;99.90;;;;;;5076068;28;19914;-71
2023/08/12 11:39:37;;;;;;;;;;;14.00;99.90;;;;;;5094234;28;19960;-74
2023/08/12 11:42:04;;;;;;;;;;;14.00;99.90;;;;;;5104441;28;19919;-71
2023/08/12 11:44:31;;;;;;;;;;;13.90;99.90;;;;;;5095604;28;19920;-70
2023/08/12 11:46:57;;;;;;;;;;;14.00;99.90;;;;;;5114488;28;20383;-74
2023/08/12 11:49:24;;;;;;;;;;;13.90;99.90;;;;;;5111274;28;20325;-70
2023/08/12 11:51:51;;;;;;;;;;;13.90;99.90;;;;;;5112056;28;19908;-72
2023/08/12 11:54:18;;;;;;;;;;;13.90;99.90;;;;;;5112562;28;19912;-72
2023/08/12 11:56:45;;;;;;;;;;;13.80;99.90;;;;;;5094968;28;19912;-74
2023/08/12 11:59:12;;;;;;;;;;;13.80;99.90;;;;;;5112596;28;19911;-76
2023/08/12 12:01:38;;;;;;;;;;;13.80;99.90;;;;;;5077507;28;19923;-83
2023/08/12 12:04:05;;;;;;;;;;;13.70;99.90;;;;;;5092565;28;20481;-78
2023/08/12 12:06:33;;;;;;;;;;;13.70;99.90;;;;;;5112375;28;19919;-74
2023/08/12 12:09:09;;;;;;;;;;;13.70;99.90;;;;;;5112845;28;20517;-74
2023/08/12 12:11:39;;;;;;;;;;;13.60;99.90;;;;;;5099106;28;19935;-78
2023/08/12 12:14:07;;;;;;;;;;;13.60;99.90;;;;;;5113127;28;19933;-77
2023/08/12 12:16:40;;;;;;;;;;;13.50;99.90;;;;;;5113279;28;20324;-74
2023/08/12 12:19:20;;;;;;;;;;;13.50;99.90;;;;;;5113002;28;19915;-79
2023/08/12 12:21:47;;;;;;;;;;;13.40;99.90;;;;;;5110514;28;19916;-71
2023/08/12 12:24:14;;;;;;;;;;;13.40;99.90;;;;;;5109258;28;19915;-73
2023/08/12 12:26:41;;;;;;;;;;;13.40;99.90;;;;;;5111113;28;19994;-79
2023/08/12 12:29:08;;;;;;;;;;;13.40;99.90;;;;;;5112781;28;19915;-72
2023/08/12 12:31:36;;;;;;;;;;;13.40;99.90;;;;;;5111040;28;20388;-77
2023/08/12 12:34:06;;;;;;;;;;;13.40;99.90;;;;;;5111367;28;19954;-74
2023/08/12 12:36:36;;;;;;;;;;;13.40;99.90;;;;;;5089357;28;19922;-74
2023/08/12 12:39:03;;;;;;;;;;;13.40;99.90;;;;;;5110022;28;20372;-76
2023/08/12 12:41:30;;;;;;;;;;;13.50;99.90;;;;;;5112171;28;20006;-76
2023/08/12 12:43:57;;;;;;;;;;;13.50;99.90;;;;;;5112361;28;19919;-78
2023/08/12 12:46:24;;;;;;;;;;;13.50;99.90;;;;;;5106899;28;19927;-74
2023/08/12 12:48:51;;;;;;;;;;;13.50;99.90;;;;;;5104871;28;19923;-76
2023/08/12 12:51:18;;;;;;;;;;;13.60;99.90;;;;;;5110845;28;19911;-77
2023/08/12 12:53:44;;;;;;;;;;;13.60;99.90;;;;;;5111693;28;19904;-75
2023/08/12 12:56:11;;;;;;;;;;;13.50;99.90;;;;;;5089907;28;19919;-79
2023/08/12 12:58:37;;;;;;;;;;;13.50;99.90;;;;;;5092174;28;19915;-74
2023/08/12 13:01:05;;;;;;;;;;;13.50;99.90;;;;;;5106436;28;20257;-70
2023/08/12 13:03:32;;;;;;;;;;;13.40;99.90;;;;;;5111632;28;20023;-77
2023/08/12 13:05:59;;;;;;;;;;;13.40;99.90;;;;;;5111162;28;19924;-77
2023/08/12 13:08:25;;;;;;;;;;;13.30;99.90;;;;;;5112244;28;19907;-73
2023/08/12 13:10:52;;;;;;;;;;;13.20;99.90;;;;;;5107837;28;20310;-76
2023/08/12 13:13:19;;;;;;;;;;;13.20;99.90;;;;;;5112038;28;20368;-75
2023/08/12 13:15:46;;;;;;;;;;;13.20;99.90;;;;;;5113728;28;19919;-75
2023/08/12 13:18:13;;;;;;;;;;;13.20;99.90;;;;;;5112394;28;20265;-76
2023/08/12 13:20:40;;;;;;;;;;;13.20;99.90;;;;;;5109514;28;19915;-72
2023/08/12 13:23:06;;;;;;;;;;;13.20;99.90;;;;;;5092344;28;19931;-74
2023/08/12 13:25:34;;;;;;;;;;;13.10;99.90;;;;;;5100377;28;19939;-72
2023/08/12 13:28:01;;;;;;;;;;;13.20;99.90;;;;;;5092470;28;19920;-76
2023/08/12 13:30:28;;;;;;;;;;;13.10;99.90;;;;;;5102395;28;19911;-74
2023/08/12 13:32:55;;;;;;;;;;;13.10;99.90;;;;;;5111949;28;20383;-76
2023/08/12 13:35:22;;;;;;;;;;;13.10;99.90;;;;;;5114789;28;19916;-74
2023/08/12 13:37:51;;;;;;;;;;;13.20;99.90;;;;;;5098308;28;19908;-74
2023/08/12 13:40:18;;;;;;;;;;;13.20;99.90;;;;;;5102105;27;20006;-71
2023/08/12 13:42:47;;;;;;;;;;;13.20;99.90;;;;;;5115574;28;19956;-75
2023/08/12 13:45:14;;;;;;;;;;;13.30;99.90;;;;;;5115250;27;19919;-69
2023/08/12 13:47:41;;;;;;;;;;;13.30;99.90;;;;;;5099456;28;19915;-72
2023/08/12 13:50:08;;;;;;;;;;;13.40;99.90;;;;;;5099284;28;20002;-72
2023/08/12 13:52:35;;;;;;;;;;;13.30;99.90;;;;;;5115971;28;20395;-73
2023/08/12 13:55:02;;;;;;;;;;;13.40;99.90;;;;;;5115397;28;19919;-73
2023/08/12 13:57:28;;;;;;;;;;;13.40;99.90;;;;;;5101086;28;19912;-69
2023/08/12 13:59:55;;;;;;;;;;;13.40;99.90;;;;;;5095571;28;19914;-73
2023/08/12 14:02:23;;;;;;;;;;;13.40;99.90;;;;;;5095666;28;19916;-70
2023/08/12 14:04:49;;;;;;;;;;;13.40;99.90;;;;;;5095162;28;19908;-74
2023/08/12 14:07:16;;;;;;;;;;;13.50;99.90;;;;;;5107848;28;19955;-73
2023/08/12 14:09:42;;;;;;;;;;;13.50;99.90;;;;;;5113916;28;19919;-73
2023/08/12 14:12:09;;;;;;;;;;;13.50;99.90;;;;;;5115798;28;19907;-76
2023/08/12 14:14:36;;;;;;;;;;;13.50;99.90;;;;;;5115155;28;19965;-75
2023/08/12 14:17:02;;;;;;;;;;;13.50;99.90;;;;;;5105547;28;20579;-75